createdAt,value
2023-02-04T00:01:56.130Z,88.98
2023-02-04T00:04:22.915Z,89.62
2023-02-04T00:06:49.740Z,90.04
2023-02-04T00:09:16.548Z,90.49
2023-02-04T00:11:43.353Z,89.73
2023-02-04T00:14:10.797Z,89.25
2023-02-04T00:16:38.939Z,89.22
2023-02-04T00:19:05.660Z,88.74
2023-02-04T00:21:32.638Z,88.54
2023-02-04T00:23:59.382Z,88.78
2023-02-04T00:26:26.112Z,88.74
2023-02-04T00:28:53.154Z,88.71
2023-02-04T00:31:20.021Z,88.78
2023-02-04T00:33:48.193Z,88.94
2023-02-04T00:36:14.940Z,88.17
2023-02-04T00:38:41.973Z,88.20
2023-02-04T00:41:08.976Z,88.45
2023-02-04T00:43:35.723Z,87.85
2023-02-04T00:46:05.508Z,87.43
2023-02-04T00:48:32.308Z,87.01
2023-02-04T00:51:00.432Z,86.60
2023-02-04T00:53:27.212Z,86.33
2023-02-04T00:55:53.994Z,86.33
2023-02-04T00:58:21.545Z,86.32
2023-02-04T01:00:48.548Z,86.64
2023-02-04T01:03:15.422Z,86.73
2023-02-04T01:05:42.266Z,86.84
2023-02-04T01:08:11.326Z,86.02
2023-02-04T01:10:38.299Z,86.51
2023-02-04T01:13:05.671Z,86.14
2023-02-04T01:15:32.509Z,86.68
2023-02-04T01:17:59.387Z,85.77
2023-02-04T01:20:26.744Z,85.27
2023-02-04T01:22:53.608Z,85.54
2023-02-04T01:25:21.863Z,85.70
2023-02-04T01:27:48.814Z,85.12
2023-02-04T01:30:16.587Z,84.98
2023-02-04T01:32:43.482Z,84.94
2023-02-04T01:35:10.237Z,85.24
2023-02-04T01:37:36.999Z,85.88
2023-02-04T01:40:04.941Z,86.60
2023-02-04T01:42:33.254Z,86.96
2023-02-04T01:45:00.652Z,86.99
2023-02-04T01:47:27.659Z,87.49
2023-02-04T01:49:55.556Z,87.05
2023-02-04T01:52:23.995Z,87.33
2023-02-04T01:54:52.528Z,87.49
2023-02-04T01:57:19.829Z,87.14
2023-02-04T01:59:56.181Z,87.10
2023-02-04T02:02:45.680Z,86.99
2023-02-04T02:05:20.022Z,86.49
2023-02-04T02:07:48.616Z,86.95
2023-02-04T02:10:17.392Z,86.13
2023-02-04T02:12:45.916Z,85.79
2023-02-04T02:15:15.712Z,86.27
2023-02-04T02:17:44.141Z,85.51
2023-02-04T02:20:16.462Z,84.47
2023-02-04T02:22:59.516Z,84.52
2023-02-04T02:25:27.782Z,84.70
2023-02-04T02:27:57.041Z,84.29
2023-02-04T02:30:24.771Z,83.94
2023-02-04T02:32:52.845Z,83.54
2023-02-04T02:35:21.255Z,83.05
2023-02-04T02:37:49.783Z,82.45
2023-02-04T02:40:17.533Z,82.71
2023-02-04T02:42:51.671Z,82.44
2023-02-04T02:45:25.232Z,82.68
2023-02-04T02:47:53.440Z,82.63
2023-02-04T02:50:24.592Z,82.67
2023-02-04T02:52:52.592Z,82.91
2023-02-04T02:55:24.587Z,83.29
2023-02-04T02:57:56.227Z,82.79
2023-02-04T03:00:27.057Z,82.98
2023-02-04T03:03:01.832Z,83.42
2023-02-04T03:05:35.168Z,84.08
2023-02-04T03:08:05.173Z,83.69
2023-02-04T03:10:32.457Z,83.90
2023-02-04T03:13:01.039Z,83.98
2023-02-04T03:15:29.695Z,84.47
2023-02-04T03:17:58.061Z,84.63
2023-02-04T03:20:28.312Z,83.82
2023-02-04T03:22:57.409Z,83.81
2023-02-04T03:25:25.328Z,84.40
2023-02-04T03:27:53.114Z,83.81
2023-02-04T03:30:22.818Z,84.06
2023-02-04T03:32:50.501Z,83.83
2023-02-04T03:35:18.081Z,84.16
2023-02-04T03:37:45.099Z,83.90
2023-02-04T03:40:12.919Z,84.01
2023-02-04T03:42:40.044Z,84.04
2023-02-04T03:45:07.840Z,84.32
2023-02-04T03:47:36.059Z,84.40
2023-02-04T03:50:03.182Z,84.52
2023-02-04T03:52:30.034Z,84.13
2023-02-04T03:54:56.938Z,84.17
2023-02-04T03:57:23.762Z,84.21
2023-02-04T03:59:50.560Z,84.05
2023-02-04T04:02:17.399Z,84.71
2023-02-04T04:04:45.530Z,84.71
2023-02-04T04:07:12.528Z,84.57
2023-02-04T04:09:39.411Z,84.73
2023-02-04T04:12:06.364Z,84.58
2023-02-04T04:14:33.425Z,83.85
2023-02-04T04:17:00.212Z,84.20
2023-02-04T04:19:27.702Z,84.53
2023-02-04T04:21:55.920Z,84.09
2023-02-04T04:24:23.038Z,84.46
2023-02-04T04:26:49.806Z,84.85
2023-02-04T04:29:16.582Z,84.41
2023-02-04T04:31:43.451Z,84.79
2023-02-04T04:34:10.419Z,85.10
2023-02-04T04:36:37.902Z,85.58
2023-02-04T04:39:06.180Z,85.49
2023-02-04T04:41:32.952Z,86.36
2023-02-04T04:43:59.681Z,86.11
2023-02-04T04:46:26.657Z,86.47
2023-02-04T04:48:53.625Z,86.12
2023-02-04T04:51:20.636Z,86.43
2023-02-04T04:53:47.418Z,86.50
2023-02-04T04:56:15.603Z,86.70
2023-02-04T04:58:42.363Z,86.46
2023-02-04T05:01:09.294Z,86.18
2023-02-04T05:03:36.109Z,86.50
2023-02-04T05:06:03.212Z,85.90
2023-02-04T05:08:30.008Z,86.10
2023-02-04T05:10:56.832Z,85.84
2023-02-04T05:13:24.993Z,85.96
2023-02-04T05:15:51.971Z,85.86
2023-02-04T05:18:18.729Z,86.25
2023-02-04T05:20:45.817Z,85.66
2023-02-04T05:23:12.685Z,86.15
2023-02-04T05:25:39.542Z,85.59
2023-02-04T05:28:06.374Z,85.64
2023-02-04T05:30:35.110Z,85.81
2023-02-04T05:33:02.225Z,85.38
2023-02-04T05:35:28.970Z,85.39
2023-02-04T05:37:55.845Z,84.90
2023-02-04T05:40:22.639Z,85.53
2023-02-04T05:42:49.445Z,85.09
2023-02-04T05:45:17.597Z,85.21
2023-02-04T05:47:45.867Z,85.82
2023-02-04T05:50:13.593Z,85.71
2023-02-04T05:52:40.617Z,85.29
2023-02-04T05:55:10.110Z,86.18
2023-02-04T05:57:37.425Z,86.12
2023-02-04T06:00:06.054Z,86.54
2023-02-04T06:02:38.938Z,86.58
2023-02-04T06:05:08.188Z,87.06
2023-02-04T06:07:34.960Z,87.06
2023-02-04T06:10:01.872Z,87.30
2023-02-04T06:12:28.799Z,86.99
2023-02-04T06:14:55.871Z,86.70
2023-02-04T06:17:22.838Z,87.10
2023-02-04T06:19:49.861Z,86.78
2023-02-04T06:22:18.308Z,86.22
2023-02-04T06:24:47.223Z,86.40
2023-02-04T06:27:14.248Z,86.24
2023-02-04T06:29:41.105Z,86.18
2023-02-04T06:32:07.888Z,86.59
2023-02-04T06:34:34.719Z,86.17
2023-02-04T06:37:01.525Z,87.05
2023-02-04T06:39:30.090Z,86.36
2023-02-04T06:41:57.183Z,86.13
2023-02-04T06:44:24.152Z,86.20
2023-02-04T06:46:50.988Z,85.94
2023-02-04T06:49:17.814Z,85.91
2023-02-04T06:51:44.589Z,85.40
2023-02-04T06:54:11.684Z,85.18
2023-02-04T06:56:39.944Z,84.88
2023-02-04T06:59:08.184Z,84.10
2023-02-04T07:01:35.183Z,83.44
2023-02-04T07:04:02.461Z,83.85
2023-02-04T07:06:29.273Z,83.11
2023-02-04T07:08:56.286Z,81.50
2023-02-04T07:11:23.082Z,81.09
2023-02-04T07:13:51.319Z,79.18
2023-02-04T07:16:18.151Z,78.42
2023-02-04T07:18:44.971Z,77.70
2023-02-04T07:21:11.852Z,77.79
2023-02-04T07:23:39.377Z,77.88
2023-02-04T07:26:12.396Z,78.56
2023-02-04T07:28:41.197Z,79.07
2023-02-04T07:31:09.447Z,79.59
2023-02-04T07:33:36.483Z,79.57
2023-02-04T07:36:03.737Z,80.39
2023-02-04T07:38:30.822Z,80.89
2023-02-04T07:40:57.572Z,81.29
2023-02-04T07:43:24.874Z,82.00
2023-02-04T07:45:52.457Z,82.64
2023-02-04T07:48:20.783Z,82.95
2023-02-04T07:50:47.670Z,83.37
2023-02-04T07:53:14.469Z,83.24
2023-02-04T07:55:41.214Z,83.77
2023-02-04T07:58:08.002Z,84.14
2023-02-04T08:00:34.991Z,84.17
2023-02-04T08:03:01.846Z,83.80
2023-02-04T08:05:30.219Z,84.47
2023-02-04T08:07:57.008Z,83.15
2023-02-04T08:10:25.640Z,83.66
2023-02-04T08:12:52.440Z,83.47
2023-02-04T08:15:19.619Z,83.30
2023-02-04T08:17:46.755Z,82.60
2023-02-04T08:20:13.658Z,82.33
2023-02-04T08:22:41.861Z,82.46
2023-02-04T08:25:10.765Z,83.77
2023-02-04T08:27:37.688Z,84.32
2023-02-04T08:30:06.816Z,84.85
2023-02-04T08:32:33.822Z,84.77
2023-02-04T08:35:01.437Z,84.56
2023-02-04T08:37:28.290Z,84.60
2023-02-04T08:39:56.604Z,84.18
2023-02-04T08:42:23.592Z,84.66
2023-02-04T08:44:50.557Z,85.53
2023-02-04T08:47:17.478Z,86.00
2023-02-04T08:49:44.320Z,86.72
2023-02-04T08:52:11.200Z,86.34
2023-02-04T08:54:37.970Z,85.83
2023-02-04T08:57:06.099Z,85.31
2023-02-04T08:59:33.170Z,85.54
2023-02-04T09:02:00.125Z,86.42
2023-02-04T09:04:27.211Z,86.36
2023-02-04T09:06:54.434Z,85.52
2023-02-04T09:09:23.007Z,84.95
2023-02-04T09:11:50.642Z,85.45
2023-02-04T09:14:18.986Z,83.94
2023-02-04T09:16:46.043Z,82.66
2023-02-04T09:19:13.318Z,82.50
2023-02-04T09:21:40.092Z,81.85
2023-02-04T09:24:07.925Z,82.16
2023-02-04T09:26:34.822Z,81.58
2023-02-04T09:29:01.956Z,80.67
2023-02-04T09:31:30.243Z,80.52
2023-02-04T09:33:57.230Z,79.95
2023-02-04T09:36:24.193Z,78.87
2023-02-04T09:38:51.013Z,79.56
2023-02-04T09:41:17.878Z,79.56
2023-02-04T09:43:45.732Z,78.93
2023-02-04T09:46:20.397Z,78.79
2023-02-04T09:48:49.763Z,77.59
2023-02-04T09:51:21.504Z,77.58
2023-02-04T09:53:50.652Z,78.33
2023-02-04T09:56:17.554Z,78.00
2023-02-04T09:58:44.494Z,77.27
2023-02-04T10:01:16.741Z,78.52
2023-02-04T10:03:48.407Z,83.72
2023-02-04T10:06:17.475Z,79.54
2023-02-04T10:08:48.996Z,75.83
2023-02-04T10:11:20.080Z,75.06
2023-02-04T10:13:50.304Z,71.92
2023-02-04T10:16:22.719Z,69.10
2023-02-04T10:18:51.213Z,70.28
2023-02-04T10:21:24.529Z,69.70
2023-02-04T10:23:56.429Z,67.94
2023-02-04T10:26:27.226Z,67.13
2023-02-04T10:28:59.815Z,65.71
2023-02-04T10:31:37.095Z,63.58
2023-02-04T10:34:10.849Z,65.51
2023-02-04T10:36:39.348Z,64.46
2023-02-04T10:39:11.808Z,64.10
2023-02-04T10:41:43.974Z,62.52
2023-02-04T10:44:14.543Z,61.87
2023-02-04T10:46:43.196Z,61.37
2023-02-04T10:49:23.822Z,58.30
2023-02-04T10:51:52.381Z,61.09
2023-02-04T10:54:23.404Z,59.92
2023-02-04T10:56:50.413Z,58.01
2023-02-04T10:59:24.327Z,58.53
2023-02-04T11:01:51.442Z,54.87
2023-02-04T11:04:19.584Z,50.34
2023-02-04T11:06:46.539Z,52.66
2023-02-04T11:09:15.125Z,51.99
2023-02-04T11:11:47.120Z,54.76
2023-02-04T11:14:27.808Z,57.17
2023-02-04T11:16:57.128Z,58.21
2023-02-04T11:19:38.479Z,59.17
2023-02-04T11:22:22.218Z,59.08
2023-02-04T11:24:49.784Z,58.86
2023-02-04T11:27:24.527Z,60.87
2023-02-04T11:29:52.340Z,61.91
2023-02-04T11:32:39.980Z,62.13
2023-02-04T11:35:25.956Z,58.64
2023-02-04T11:37:54.566Z,57.55
2023-02-04T11:40:28.057Z,55.63
2023-02-04T11:43:02.134Z,58.38
2023-02-04T11:45:33.820Z,58.91
2023-02-04T11:48:10.396Z,60.73
2023-02-04T11:50:39.347Z,60.38
2023-02-04T11:53:06.293Z,60.14
2023-02-04T11:55:42.743Z,61.01
2023-02-04T11:58:15.713Z,60.93
2023-02-04T12:00:43.013Z,59.85
2023-02-04T12:03:24.510Z,60.59
2023-02-04T12:05:53.746Z,59.39
2023-02-04T12:08:33.079Z,58.92
2023-02-04T12:11:06.219Z,59.31
2023-02-04T12:13:34.505Z,58.29
2023-02-04T12:16:04.622Z,59.14
2023-02-04T12:18:34.774Z,59.43
2023-02-04T12:21:03.319Z,59.05
2023-02-04T12:23:30.967Z,59.17
2023-02-04T12:25:57.921Z,59.70
2023-02-04T12:28:25.173Z,59.09
2023-02-04T12:30:52.119Z,59.01
2023-02-04T12:33:19.162Z,58.51
2023-02-04T12:35:46.356Z,59.43
2023-02-04T12:38:15.555Z,62.16
2023-02-04T12:40:42.465Z,62.81
2023-02-04T12:43:09.258Z,63.42
2023-02-04T12:45:36.216Z,63.09
2023-02-04T12:48:03.366Z,63.38
2023-02-04T12:50:30.454Z,62.71
2023-02-04T12:52:59.679Z,60.40
2023-02-04T12:55:29.458Z,63.23
2023-02-04T12:57:56.512Z,61.37
2023-02-04T13:00:24.089Z,58.85
2023-02-04T13:02:51.184Z,56.58
2023-02-04T13:05:18.428Z,58.07
2023-02-04T13:07:45.867Z,58.99
2023-02-04T13:10:14.034Z,58.18
2023-02-04T13:12:42.205Z,56.85
2023-02-04T13:15:10.194Z,56.82
2023-02-04T13:17:37.415Z,56.24
2023-02-04T13:20:05.265Z,56.22
2023-02-04T13:22:32.411Z,56.04
2023-02-04T13:24:59.562Z,54.60
2023-02-04T13:27:27.060Z,54.30
2023-02-04T13:29:55.180Z,54.50
2023-02-04T13:32:22.138Z,55.24
2023-02-04T13:34:49.000Z,55.37
2023-02-04T13:37:16.152Z,54.41
2023-02-04T13:39:43.405Z,55.38
2023-02-04T13:42:10.250Z,55.81
2023-02-04T13:44:37.009Z,56.26
2023-02-04T13:47:05.621Z,56.20
2023-02-04T13:49:32.485Z,56.34
2023-02-04T13:51:59.334Z,56.74
2023-02-04T13:54:26.174Z,58.38
2023-02-04T13:56:53.311Z,58.02
2023-02-04T13:59:21.054Z,58.07
2023-02-04T14:01:48.116Z,58.54
2023-02-04T14:04:16.333Z,56.96
2023-02-04T14:06:43.185Z,57.28
2023-02-04T14:09:11.347Z,56.48
2023-02-04T14:11:39.292Z,56.47
2023-02-04T14:14:07.027Z,57.20
2023-02-04T14:16:35.695Z,54.96
2023-02-04T14:19:03.761Z,57.63
2023-02-04T14:21:31.973Z,58.48
2023-02-04T14:23:59.361Z,59.48
2023-02-04T14:26:26.108Z,61.22
2023-02-04T14:28:52.972Z,63.86
2023-02-04T14:31:19.857Z,65.87
2023-02-04T14:33:48.557Z,65.93
2023-02-04T14:36:17.128Z,66.43
2023-02-04T14:38:45.423Z,66.84
2023-02-04T14:41:12.431Z,66.29
2023-02-04T14:43:39.283Z,65.93
2023-02-04T14:46:06.203Z,66.44
2023-02-04T14:48:33.254Z,67.37
2023-02-04T14:51:00.092Z,66.04
2023-02-04T14:53:27.327Z,65.68
2023-02-04T14:55:55.656Z,65.27
2023-02-04T14:58:22.484Z,65.37
2023-02-04T15:00:49.436Z,65.10
2023-02-04T15:03:16.200Z,65.20
2023-02-04T15:05:43.179Z,64.03
2023-02-04T15:08:10.120Z,64.45
2023-02-04T15:10:37.168Z,64.81
2023-02-04T15:13:05.542Z,65.58
2023-02-04T15:15:32.346Z,65.90
2023-02-04T15:18:00.016Z,66.01
2023-02-04T15:20:26.834Z,65.70
2023-02-04T15:22:53.630Z,65.31
2023-02-04T15:25:20.436Z,65.04
2023-02-04T15:27:47.291Z,64.27
2023-02-04T15:30:17.415Z,64.55
2023-02-04T15:32:44.637Z,64.81
2023-02-04T15:35:11.970Z,64.89
2023-02-04T15:37:39.056Z,66.31
2023-02-04T15:40:07.093Z,66.02
2023-02-04T15:42:34.599Z,65.50
2023-02-04T15:45:01.362Z,66.74
2023-02-04T15:47:29.581Z,66.40
2023-02-04T15:49:56.499Z,66.53
2023-02-04T15:52:25.317Z,67.27
2023-02-04T15:54:52.863Z,68.07
2023-02-04T15:57:19.670Z,69.44
2023-02-04T15:59:46.601Z,69.93
2023-02-04T16:02:13.622Z,69.40
2023-02-04T16:04:41.980Z,69.19
2023-02-04T16:07:08.719Z,69.43
2023-02-04T16:09:36.032Z,68.84
2023-02-04T16:12:03.451Z,70.11
2023-02-04T16:14:30.485Z,70.08
2023-02-04T16:16:57.558Z,70.73
2023-02-04T16:19:24.413Z,70.94
2023-02-04T16:21:52.621Z,71.16
2023-02-04T16:24:20.111Z,70.33
2023-02-04T16:26:47.003Z,70.20
2023-02-04T16:29:13.904Z,71.00
2023-02-04T16:31:40.846Z,71.24
2023-02-04T16:34:07.806Z,70.80
2023-02-04T16:36:34.578Z,71.00
2023-02-04T16:39:02.833Z,71.27
2023-02-04T16:41:29.857Z,71.26
2023-02-04T16:43:56.836Z,72.29
2023-02-04T16:46:23.676Z,71.94
2023-02-04T16:48:50.821Z,72.74
2023-02-04T16:51:17.749Z,72.58
2023-02-04T16:53:44.639Z,71.69
2023-02-04T16:56:13.296Z,71.82
2023-02-04T16:58:40.166Z,71.84
2023-02-04T17:01:07.001Z,70.94
2023-02-04T17:03:35.214Z,71.35
2023-02-04T17:06:02.151Z,71.96
2023-02-04T17:08:29.296Z,72.45
2023-02-04T17:10:57.383Z,72.78
2023-02-04T17:13:25.605Z,73.14
2023-02-04T17:15:53.038Z,73.29
2023-02-04T17:18:19.987Z,73.52
2023-02-04T17:20:46.935Z,73.13
2023-02-04T17:23:13.956Z,73.29
2023-02-04T17:25:40.866Z,73.41
2023-02-04T17:28:07.757Z,73.04
2023-02-04T17:30:36.228Z,73.72
2023-02-04T17:33:03.272Z,74.41
2023-02-04T17:35:30.798Z,77.17
2023-02-04T17:37:57.903Z,77.69
2023-02-04T17:40:25.082Z,77.45
2023-02-04T17:42:51.904Z,76.87
2023-02-04T17:45:18.928Z,76.60
2023-02-04T17:47:47.295Z,75.63
2023-02-04T17:50:14.049Z,75.36
2023-02-04T17:52:41.130Z,75.00
2023-02-04T17:55:20.241Z,75.16
2023-02-04T17:57:47.098Z,75.23
2023-02-04T18:00:18.618Z,78.54
2023-02-04T18:02:49.852Z,80.04
2023-02-04T18:05:21.036Z,80.60
2023-02-04T18:07:58.789Z,81.50
2023-02-04T18:10:33.039Z,82.35
2023-02-04T18:13:09.932Z,83.08
2023-02-04T18:15:37.677Z,83.62
2023-02-04T18:18:20.255Z,82.13
2023-02-04T18:20:56.056Z,81.87
2023-02-04T18:23:22.963Z,81.66
2023-02-04T18:25:49.760Z,81.07
2023-02-04T18:28:19.604Z,82.45
2023-02-04T18:30:50.886Z,83.06
2023-02-04T18:33:23.288Z,83.48
2023-02-04T18:35:51.814Z,82.50
2023-02-04T18:38:25.411Z,82.18
2023-02-04T18:41:02.493Z,83.29
2023-02-04T18:43:36.222Z,83.56
2023-02-04T18:46:22.220Z,84.01
2023-02-04T18:49:01.537Z,84.62
2023-02-04T18:51:39.250Z,84.60
2023-02-04T18:54:27.973Z,83.40
2023-02-04T18:57:17.151Z,81.92
2023-02-04T18:59:44.133Z,82.20
2023-02-04T19:02:35.709Z,80.90
2023-02-04T19:05:22.814Z,80.32
2023-02-04T19:07:49.677Z,81.99
2023-02-04T19:10:33.686Z,83.11
2023-02-04T19:13:19.739Z,84.95
2023-02-04T19:16:04.981Z,85.51
2023-02-04T19:18:37.271Z,85.04
2023-02-04T19:21:25.957Z,85.04
2023-02-04T19:24:01.660Z,84.10
2023-02-04T19:26:35.091Z,83.87
2023-02-04T19:29:40.825Z,83.70
2023-02-04T19:32:23.886Z,82.79
2023-02-04T19:34:52.763Z,82.13
2023-02-04T19:37:24.919Z,81.19
2023-02-04T19:39:54.436Z,81.35
2023-02-04T19:42:32.893Z,82.09
2023-02-04T19:45:12.719Z,81.86
2023-02-04T19:47:42.813Z,81.21
2023-02-04T19:50:24.845Z,81.05
2023-02-04T19:52:56.713Z,80.39
2023-02-04T19:55:32.002Z,80.76
2023-02-04T19:58:10.385Z,80.64
2023-02-04T20:00:49.443Z,80.70
2023-02-04T20:03:39.796Z,80.44
2023-02-04T20:06:31.311Z,81.11
2023-02-04T20:09:06.357Z,81.81
2023-02-04T20:11:56.067Z,82.82
2023-02-04T20:14:36.838Z,83.91
2023-02-04T20:17:19.725Z,85.20
2023-02-04T20:19:47.536Z,84.97
2023-02-04T20:22:52.393Z,84.20
2023-02-04T20:25:37.187Z,82.74
2023-02-04T20:28:17.504Z,82.96
2023-02-04T20:30:45.069Z,82.58
2023-02-04T20:33:25.609Z,81.81
2023-02-04T20:36:37.129Z,80.82
2023-02-04T20:39:35.755Z,80.28
2023-02-04T20:42:37.580Z,80.18
2023-02-04T20:45:32.792Z,81.34
2023-02-04T20:48:22.687Z,81.62
2023-02-04T20:50:51.257Z,83.48
2023-02-04T20:53:26.548Z,83.64
2023-02-04T20:55:58.148Z,84.25
2023-02-04T20:58:28.499Z,84.16
2023-02-04T21:00:55.762Z,84.37
2023-02-04T21:03:28.716Z,83.72
2023-02-04T21:05:59.540Z,83.37
2023-02-04T21:08:35.674Z,83.06
2023-02-04T21:11:05.294Z,82.37
2023-02-04T21:13:32.793Z,82.10
2023-02-04T21:15:59.973Z,82.56
2023-02-04T21:18:28.545Z,82.66
2023-02-04T21:21:06.732Z,82.61
2023-02-04T21:23:43.170Z,82.85
2023-02-04T21:26:19.302Z,82.36
2023-02-04T21:29:09.373Z,82.67
2023-02-04T21:31:36.474Z,82.44
2023-02-04T21:34:08.008Z,82.43
2023-02-04T21:36:35.289Z,82.50
2023-02-04T21:39:02.428Z,81.88
2023-02-04T21:41:29.445Z,81.58
2023-02-04T21:43:58.275Z,81.13
2023-02-04T21:46:31.865Z,80.70
2023-02-04T21:48:58.795Z,80.43
2023-02-04T21:51:27.040Z,80.43
2023-02-04T21:53:53.872Z,80.41
2023-02-04T21:56:20.755Z,80.39
2023-02-04T21:58:47.508Z,80.32
2023-02-04T22:01:17.047Z,80.56
2023-02-04T22:06:37.852Z,81.20
2023-02-04T22:09:04.775Z,81.37
2023-02-04T22:11:31.527Z,81.26
2023-02-04T22:14:04.035Z,81.01
2023-02-04T22:16:34.239Z,80.91
2023-02-04T22:19:01.493Z,81.29
2023-02-04T22:21:28.489Z,81.34
2023-02-04T22:23:56.588Z,81.76
2023-02-04T22:26:23.357Z,82.33
2023-02-04T22:28:50.087Z,82.50
2023-02-04T22:31:17.162Z,84.47
2023-02-04T22:33:43.939Z,84.69
2023-02-04T22:36:10.680Z,84.79
2023-02-04T22:38:37.627Z,84.16
2023-02-04T22:41:06.023Z,84.02
2023-02-04T22:43:33.164Z,83.33
2023-02-04T22:46:00.132Z,83.08
2023-02-04T22:48:27.067Z,83.07
2023-02-04T22:50:53.868Z,82.57
2023-02-04T22:53:23.184Z,82.20
2023-02-04T22:55:50.368Z,82.31
2023-02-04T22:58:18.492Z,82.22
2023-02-04T23:00:46.806Z,82.01
2023-02-04T23:03:13.626Z,81.42
2023-02-04T23:05:41.994Z,82.11
2023-02-04T23:08:09.367Z,82.66
2023-02-04T23:10:38.951Z,82.47
2023-02-04T23:13:12.723Z,82.91
2023-02-04T23:15:44.214Z,83.14
2023-02-04T23:18:13.176Z,84.52
2023-02-04T23:20:41.117Z,85.39
2023-02-04T23:23:09.440Z,86.31
2023-02-04T23:25:36.790Z,86.45
2023-02-04T23:28:10.338Z,86.78
2023-02-04T23:30:39.966Z,86.88
2023-02-04T23:33:13.829Z,86.05
2023-02-04T23:35:49.209Z,85.91
2023-02-04T23:38:16.838Z,85.39
2023-02-04T23:40:58.278Z,84.65
2023-02-04T23:43:41.653Z,84.08
2023-02-04T23:46:20.474Z,83.08
2023-02-04T23:48:50.260Z,83.01
2023-02-04T23:51:17.312Z,82.51
2023-02-04T23:53:44.133Z,82.17
2023-02-04T23:56:11.043Z,81.85
2023-02-04T23:58:37.825Z,81.61
